| Record Date MM/DD/YYYY | Record Time HH:MM:SS | Record Julian Date NNN day of the year | Air Temperature Max (Degrees Fahrenheit F) | Time Max Air Temperature HH:MM:SS This is the time of max air temp for the prior hour interval listed for record [Time]. | Air Temperature Min (Degrees Fahrenheit F) | Time Min Air Temperature HH:MM:SS This is the time of min air temp for the prior hour interval listed for record [Time]. | Air Temperature Observed (Degrees Fahrenheit F) This is an instantaneous reading at the record [Time]. | Relative Humidity Max (Percent) | Time Max Relative Humidity HH:MM:SS This is the time of max relative humidity for the prior hour interval listed for record [Time]. | Relative Humidity Min (Percent) | Time Min Relative Humidity HH:MM:SS This is the time of min relative humidity for the prior hour interval listed for record [Time]. | Relative Humidity Observed (Percent) This is an instantaneous reading at the record [Time]. | Precipitation (Inches n.nn) rain fall that occurred during the prior hour interval listed for record [Time]. | Wind Speed (Miles Per Hour) Resultant Speed that occurred during the prior hour interval listed for record [Time]. | Wind Direction (Degrees) Resultant Direction that occurred during the prior hour interval listed for record [Time]. | Solar Radiation (Langley's) that occurred during the prior hour interval listed for record [Time]. | Soil Temperature Average at 2 inch depth (Degrees Fahrenheit F) that occurred during the prior hour interval listed for record [Time]. | Soil Temperature Observed at 2 inch depth (Degrees Fahrenheit F) This is an instantaneous reading at the record [Time]. | Soil Temperature Average at 4 inch depth (Degrees Fahrenheit F) that occurred during the prior hour interval listed for record [Time]. | Soil Temperature Observed at 4 inch depth (Degrees Fahrenheit F) This is an instantaneous reading at the record [Time]. |
|---|---|---|---|---|---|---|---|---|---|---|---|---|---|---|---|---|---|---|---|---|
| 04/30/2026 | 0:00:00 | 120 | 65 | 23:02:02 | 65 | 23:25:03 | 65 | 90 | 23:33:02 | 89 | 23:53:00 | 89.3 | 0 | 2.6 | 328 | 0 | 73 | 73 | 74 | 74 |
| 04/30/2026 | 1:00:00 | 120 | 65 | 0:00:02 | 64 | 0:59:02 | 64 | 91 | 0:56:02 | 89 | 0:09:04 | 90.6 | 0.02 | 4.7 | 347 | 0 | 73 | 73 | 73 | 73 |
| 04/30/2026 | 2:00:00 | 120 | 64 | 1:00:01 | 62 | 1:59:01 | 62 | 92 | 1:28:04 | 90 | 1:57:03 | 90.4 | 0.12 | 5.7 | 2 | 0 | 72 | 72 | 73 | 73 |
| 04/30/2026 | 3:00:00 | 120 | 62 | 2:00:00 | 62 | 2:38:00 | 62 | 91 | 2:57:02 | 89 | 2:23:04 | 90.9 | 0.04 | 5.5 | 14 | 0 | 72 | 72 | 73 | 73 |
| 04/30/2026 | 4:00:00 | 120 | 62 | 3:09:00 | 61 | 3:45:04 | 61 | 92 | 3:36:00 | 90 | 3:11:01 | 91.5 | 0 | 4.3 | 16 | 0 | 72 | 71 | 72 | 72 |
| 04/30/2026 | 5:00:00 | 120 | 62 | 4:59:05 | 61 | 4:01:00 | 62 | 92 | 4:28:02 | 90 | 4:49:05 | 91 | 0.01 | 4.7 | 13 | 0 | 71 | 71 | 72 | 72 |
| 04/30/2026 | 6:00:00 | 120 | 62 | 5:08:03 | 62 | 5:25:03 | 62 | 91 | 5:12:03 | 89 | 5:59:04 | 89.3 | 0 | 5.8 | 10 | 1 | 71 | 71 | 72 | 72 |
| 04/30/2026 | 7:00:00 | 120 | 62 | 6:51:04 | 62 | 6:06:04 | 62 | 90 | 6:12:05 | 86 | 6:55:00 | 87 | 0 | 5.3 | 18 | 5 | 71 | 71 | 72 | 71 |
| 04/30/2026 | 8:00:00 | 120 | 62 | 7:08:03 | 62 | 7:31:02 | 62 | 87 | 7:00:01 | 84 | 7:30:03 | 85.8 | 0 | 5.4 | 20 | 11 | 71 | 71 | 71 | 71 |
| 04/30/2026 | 9:00:00 | 120 | 64 | 8:54:00 | 62 | 8:17:04 | 63 | 86 | 8:24:02 | 80 | 8:58:00 | 80.8 | 0 | 4.9 | 23 | 16 | 71 | 71 | 72 | 72 |
| 04/30/2026 | 10:00:00 | 120 | 64 | 9:59:05 | 63 | 9:20:04 | 64 | 82 | 9:11:01 | 78 | 9:59:01 | 78.17 | 0 | 4.1 | 24 | 23 | 72 | 72 | 72 | 72 |
| 04/30/2026 | 11:00:00 | 120 | 66 | 10:55:04 | 64 | 10:04:04 | 66 | 81 | 10:08:04 | 71 | 10:58:01 | 73.31 | 0 | 3.9 | 25 | 33 | 72 | 73 | 72 | 72 |
| 04/30/2026 | 12:00:00 | 120 | 67 | 11:24:02 | 65 | 11:01:02 | 66 | 75 | 11:02:01 | 67 | 11:43:04 | 68.6 | 0 | 3.8 | 30 | 41 | 73 | 74 | 73 | 73 |
| 04/30/2026 | 13:00:00 | 120 | 67 | 13:00:00 | 66 | 12:00:05 | 67 | 72 | 12:13:03 | 66 | 12:33:01 | 69.8 | 0 | 4.2 | 27 | 38 | 74 | 74 | 73 | 73 |
| 04/30/2026 | 14:00:00 | 120 | 69 | 13:58:04 | 67 | 13:23:01 | 69 | 72 | 13:53:00 | 65 | 13:09:05 | 65.76 | 0 | 3.5 | 28 | 33 | 74 | 75 | 74 | 74 |
| 04/30/2026 | 15:00:00 | 120 | 70 | 14:59:00 | 68 | 14:32:03 | 69 | 71 | 14:24:02 | 64 | 14:52:04 | 67.74 | 0 | 5.7 | 11 | 37 | 75 | 75 | 74 | 74 |
| 04/30/2026 | 16:00:00 | 120 | 69 | 15:00:00 | 68 | 15:59:05 | 68 | 70 | 15:23:05 | 62 | 15:57:01 | 62.91 | 0 | 5.6 | 13 | 27 | 75 | 75 | 74 | 74 |
| 04/30/2026 | 17:00:00 | 120 | 68 | 16:00:01 | 66 | 16:59:04 | 66 | 69 | 16:47:03 | 62 | 16:04:02 | 66.66 | 0 | 5.9 | 10 | 10 | 75 | 74 | 74 | 74 |
| 04/30/2026 | 18:00:00 | 120 | 66 | 17:00:00 | 64 | 17:59:05 | 64 | 75 | 17:57:05 | 65 | 17:03:01 | 74.3 | 0 | 4.9 | 10 | 3 | 74 | 73 | 74 | 74 |
| 04/30/2026 | 19:00:00 | 120 | 64 | 18:00:00 | 61 | 19:00:00 | 61 | 85 | 18:53:04 | 72 | 18:00:05 | 84.9 | 0.01 | 1.9 | 20 | 0 | 73 | 73 | 73 | 73 |
| 04/30/2026 | 20:00:00 | 120 | 62 | 19:23:05 | 61 | 19:38:00 | 61 | 90 | 19:26:02 | 85 | 19:00:00 | 87.8 | 0.01 | 1.0 | 21 | 0 | 72 | 72 | 73 | 73 |
| 04/30/2026 | 21:00:00 | 120 | 61 | 20:17:00 | 60 | 20:51:03 | 61 | 89 | 20:43:00 | 86 | 20:27:03 | 88 | 0.01 | 2.6 | 12 | 0 | 72 | 71 | 72 | 72 |
| 04/30/2026 | 22:00:00 | 120 | 61 | 21:38:04 | 60 | 21:14:00 | 61 | 88 | 21:02:03 | 85 | 21:38:02 | 86.5 | 0 | 2.1 | 20 | 0 | 71 | 71 | 72 | 72 |
| 04/30/2026 | 23:00:00 | 120 | 61 | 22:30:03 | 60 | 22:00:05 | 61 | 87 | 22:00:04 | 84 | 22:20:00 | 85.1 | 0 | 1.4 | 15 | 0 | 71 | 71 | 72 | 71 |
| 05/01/2026 | 0:00:00 | 121 | 61 | 23:23:03 | 61 | 23:01:00 | 61 | 87 | 23:59:03 | 84 | 23:07:03 | 87.1 | 0 | 1.0 | 38 | 0 | 70 | 70 | 71 | 71 |
| 05/01/2026 | 1:00:00 | 121 | 61 | 0:00:02 | 60 | 0:49:03 | 60 | 90 | 0:48:04 | 87 | 0:00:01 | 89.7 | 0 | 1.7 | 7 | 0 | 70 | 70 | 71 | 71 |
| 05/01/2026 | 2:00:00 | 121 | 60 | 1:36:05 | 60 | 1:22:01 | 60 | 90 | 1:15:03 | 86 | 1:58:05 | 86.2 | 0 | 3.5 | 4 | 0 | 70 | 70 | 71 | 71 |
| 05/01/2026 | 3:00:00 | 121 | 60 | 2:07:01 | 58 | 3:00:00 | 58 | 88 | 2:45:04 | 84 | 2:23:05 | 85.3 | 0 | 4.6 | 8 | 0 | 70 | 69 | 70 | 70 |
| 05/01/2026 | 4:00:00 | 121 | 58 | 3:00:00 | 58 | 3:33:03 | 58 | 85 | 3:00:00 | 82 | 3:34:03 | 83.6 | 0 | 4.4 | 14 | 0 | 69 | 69 | 70 | 70 |
| 05/01/2026 | 5:00:00 | 121 | 58 | 4:12:05 | 58 | 4:59:04 | 58 | 86 | 4:42:01 | 82 | 4:06:02 | 84.1 | 0 | 1.7 | 16 | 0 | 69 | 69 | 70 | 70 |
| 05/01/2026 | 6:00:00 | 121 | 58 | 5:01:00 | 57 | 5:59:03 | 57 | 87 | 5:57:00 | 83 | 5:33:00 | 86.6 | 0.01 | 1.6 | 30 | 0 | 69 | 69 | 70 | 69 |
| 05/01/2026 | 7:00:00 | 121 | 57 | 6:09:01 | 56 | 6:35:04 | 57 | 88 | 6:21:00 | 85 | 6:45:03 | 86.3 | 0 | 2.9 | 6 | 2 | 68 | 68 | 69 | 69 |
| 05/01/2026 | 8:00:00 | 121 | 57 | 7:57:01 | 57 | 7:24:04 | 57 | 88 | 7:57:01 | 85 | 7:39:03 | 88.2 | 0.01 | 3.0 | 1 | 4 | 68 | 68 | 69 | 69 |
| 05/01/2026 | 9:00:00 | 121 | 58 | 8:44:02 | 57 | 8:06:03 | 57 | 88 | 8:01:01 | 82 | 8:56:05 | 84 | 0.02 | 0.9 | 31 | 7 | 68 | 68 | 69 | 69 |
| 05/01/2026 | 10:00:00 | 121 | 58 | 9:29:04 | 57 | 9:16:00 | 57 | 89 | 9:26:03 | 84 | 9:00:00 | 86 | 0.02 | 1.0 | 31 | 10 | 68 | 68 | 69 | 69 |
| 05/01/2026 | 11:00:00 | 121 | 58 | 10:20:00 | 57 | 10:49:03 | 57 | 87 | 10:58:00 | 83 | 10:20:04 | 86 | 0.01 | 1.6 | 19 | 11 | 68 | 68 | 69 | 69 |
| 05/01/2026 | 12:00:00 | 121 | 58 | 12:00:00 | 57 | 11:01:03 | 58 | 88 | 11:23:02 | 83 | 11:34:00 | 87.3 | 0.03 | 3.5 | 3 | 13 | 68 | 68 | 69 | 69 |
| 05/01/2026 | 13:00:00 | 121 | 59 | 12:59:05 | 58 | 12:08:01 | 59 | 88 | 12:20:02 | 81 | 12:58:02 | 82.6 | 0.01 | 2.4 | 23 | 18 | 68 | 68 | 69 | 69 |
| 05/01/2026 | 14:00:00 | 121 | 60 | 13:42:04 | 59 | 13:00:00 | 60 | 85 | 13:01:04 | 75 | 13:59:00 | 77.44 | 0 | 2.0 | 28 | 16 | 69 | 69 | 69 | 69 |
| 05/01/2026 | 15:00:00 | 121 | 60 | 14:13:00 | 59 | 14:43:05 | 60 | 83 | 14:54:05 | 76 | 14:01:01 | 80.4 | 0 | 0.9 | 60 | 13 | 69 | 69 | 69 | 69 |
| 05/01/2026 | 16:00:00 | 121 | 60 | 15:59:04 | 60 | 15:01:02 | 60 | 82 | 15:05:02 | 74 | 15:31:00 | 77.81 | 0 | 1.6 | 35 | 10 | 69 | 69 | 69 | 69 |
| 05/01/2026 | 17:00:00 | 121 | 60 | 16:06:04 | 60 | 16:58:02 | 60 | 79 | 16:45:01 | 76 | 16:03:01 | 78.6 | 0 | 2.5 | 20 | 6 | 69 | 69 | 69 | 69 |
| 05/01/2026 | 18:00:00 | 121 | 60 | 17:01:01 | 59 | 17:58:03 | 59 | 80 | 17:59:01 | 77 | 17:21:04 | 79.46 | 0 | 1.7 | 25 | 1 | 68 | 68 | 69 | 69 |
| 05/01/2026 | 19:00:00 | 121 | 59 | 18:25:02 | 58 | 18:58:04 | 58 | 86 | 18:35:01 | 79 | 18:01:05 | 85.6 | 0 | 0.9 | 325 | 0 | 68 | 68 | 69 | 68 |
| 05/01/2026 | 20:00:00 | 121 | 58 | 19:00:03 | 58 | 19:58:01 | 58 | 89 | 19:40:02 | 86 | 19:07:02 | 86.1 | 0 | 0.9 | 350 | 0 | 68 | 67 | 68 | 68 |
| 05/01/2026 | 21:00:00 | 121 | 58 | 20:12:02 | 58 | 20:55:03 | 58 | 89 | 20:50:02 | 85 | 20:04:05 | 88.7 | 0 | 1.2 | 359 | 0 | 67 | 67 | 68 | 68 |
| 05/01/2026 | 22:00:00 | 121 | 58 | 21:38:01 | 57 | 21:19:01 | 58 | 89 | 21:15:00 | 84 | 21:33:05 | 85 | 0 | 1.4 | 346 | 0 | 67 | 67 | 68 | 68 |
| 05/01/2026 | 23:00:00 | 121 | 58 | 22:00:00 | 57 | 22:41:05 | 57 | 89 | 22:59:00 | 85 | 22:00:03 | 89.3 | 0.01 | 0.6 | 311 | 0 | 67 | 67 | 68 | 67 |
| 05/02/2026 | 0:00:00 | 122 | 57 | 23:02:04 | 57 | 23:44:03 | 57 | 90 | 23:29:02 | 87 | 23:48:00 | 87.2 | 0 | 0.9 | 358 | 0 | 67 | 66 | 67 | 67 |
| 05/02/2026 | 1:00:00 | 122 | 57 | 0:00:00 | 56 | 0:30:04 | 56 | 88 | 0:24:02 | 84 | 0:56:02 | 85 | 0 | 2.5 | 356 | 0 | 66 | 66 | 67 | 67 |
| 05/02/2026 | 2:00:00 | 122 | 57 | 1:51:05 | 56 | 1:19:04 | 56 | 85 | 1:18:02 | 80 | 1:51:02 | 80.5 | 0 | 3.4 | 5 | 0 | 66 | 66 | 67 | 67 |
| 05/02/2026 | 3:00:00 | 122 | 57 | 2:54:02 | 56 | 2:26:00 | 56 | 83 | 2:23:01 | 78 | 2:49:03 | 80.1 | 0 | 3.8 | 3 | 0 | 66 | 66 | 67 | 67 |
| 05/02/2026 | 4:00:00 | 122 | 56 | 3:00:03 | 56 | 3:49:04 | 56 | 83 | 3:46:01 | 79 | 3:33:05 | 81.4 | 0 | 3.2 | 2 | 0 | 66 | 65 | 66 | 66 |
| 05/02/2026 | 5:00:00 | 122 | 56 | 4:00:02 | 55 | 4:57:02 | 55 | 83 | 4:53:04 | 79 | 4:28:01 | 82.4 | 0 | 3.1 | 357 | 0 | 65 | 65 | 66 | 66 |
| 05/02/2026 | 6:00:00 | 122 | 55 | 5:00:03 | 54 | 5:33:05 | 55 | 85 | 5:35:04 | 82 | 5:03:01 | 83.1 | 0 | 2.5 | 354 | 1 | 65 | 65 | 66 | 66 |
| 05/02/2026 | 7:00:00 | 122 | 58 | 6:59:04 | 55 | 6:00:02 | 58 | 83 | 6:01:04 | 72 | 6:57:05 | 72.67 | 0 | 4.0 | 353 | 13 | 65 | 65 | 66 | 66 |
| 05/02/2026 | 8:00:00 | 122 | 61 | 7:58:04 | 58 | 7:10:02 | 61 | 74 | 7:07:03 | 61 | 7:47:01 | 62.33 | 0 | 5.1 | 3 | 32 | 65 | 65 | 66 | 66 |
| 05/02/2026 | 9:00:00 | 122 | 64 | 8:59:02 | 61 | 8:04:05 | 64 | 65 | 8:06:03 | 53 | 8:59:05 | 54.47 | 0 | 4.7 | 12 | 52 | 66 | 67 | 66 | 66 |
| 05/02/2026 | 10:00:00 | 122 | 66 | 9:51:02 | 64 | 9:00:01 | 66 | 62 | 9:07:00 | 45 | 9:52:00 | 49.83 | 0 | 5.5 | 10 | 67 | 68 | 69 | 67 | 68 |
| 05/02/2026 | 11:00:00 | 122 | 68 | 10:19:03 | 66 | 10:01:01 | 68 | 57 | 10:15:04 | 42 | 10:20:04 | 49.19 | 0 | 6.3 | 10 | 77 | 70 | 72 | 69 | 70 |
| 05/02/2026 | 12:00:00 | 122 | 70 | 11:49:01 | 67 | 11:07:04 | 69 | 53 | 11:52:00 | 38 | 11:29:04 | 45.54 | 0 | 6.3 | 14 | 81 | 73 | 75 | 71 | 72 |
| 05/02/2026 | 13:00:00 | 122 | 70 | 12:39:02 | 68 | 12:04:05 | 69 | 55 | 12:07:01 | 40 | 12:29:00 | 43.71 | 0 | 7.4 | 347 | 82 | 76 | 76 | 73 | 73 |
| 05/02/2026 | 14:00:00 | 122 | 71 | 13:35:01 | 69 | 13:00:01 | 71 | 53 | 13:38:05 | 38 | 13:31:03 | 44.42 | 0 | 8.0 | 349 | 78 | 77 | 77 | 74 | 75 |
| 05/02/2026 | 15:00:00 | 122 | 71 | 14:08:04 | 70 | 14:49:01 | 70 | 50 | 14:06:00 | 37 | 14:16:00 | 43.34 | 0 | 7.6 | 337 | 67 | 78 | 78 | 75 | 75 |
| 05/02/2026 | 16:00:00 | 122 | 71 | 15:55:04 | 70 | 15:42:05 | 71 | 50 | 15:55:01 | 38 | 15:06:05 | 40.05 | 0 | 5.6 | 327 | 50 | 77 | 77 | 75 | 75 |
| 05/02/2026 | 17:00:00 | 122 | 71 | 16:01:01 | 70 | 16:13:04 | 70 | 47 | 16:47:03 | 39 | 16:18:02 | 42.79 | 0 | 7.0 | 335 | 34 | 76 | 75 | 75 | 75 |
| 05/02/2026 | 18:00:00 | 122 | 71 | 17:07:04 | 69 | 17:59:04 | 69 | 52 | 17:53:01 | 40 | 17:10:00 | 48.21 | 0 | 5.0 | 339 | 17 | 75 | 74 | 74 | 74 |
| 05/02/2026 | 19:00:00 | 122 | 69 | 18:00:04 | 63 | 19:00:00 | 63 | 73 | 18:56:05 | 47 | 18:04:03 | 69.96 | 0 | 0.8 | 322 | 3 | 73 | 73 | 74 | 73 |
| 05/02/2026 | 20:00:00 | 122 | 63 | 19:04:02 | 59 | 19:59:05 | 59 | 80 | 19:57:03 | 67 | 19:02:01 | 79.59 | 0 | 0.1 | 341 | 0 | 72 | 71 | 73 | 72 |
| 05/02/2026 | 21:00:00 | 122 | 59 | 20:00:00 | 56 | 20:58:05 | 57 | 86 | 20:46:01 | 77 | 20:11:02 | 84.7 | 0 | 0.4 | 109 | 0 | 71 | 70 | 72 | 71 |
| 05/02/2026 | 22:00:00 | 122 | 57 | 21:05:05 | 56 | 21:57:02 | 56 | 90 | 21:28:02 | 85 | 21:00:00 | 89.7 | 0 | 0.3 | 240 | 0 | 70 | 69 | 71 | 70 |
| 05/02/2026 | 23:00:00 | 122 | 56 | 22:00:01 | 54 | 22:52:04 | 55 | 90 | 22:00:02 | 88 | 22:55:05 | 89 | 0 | 0.6 | 215 | 0 | 69 | 68 | 70 | 70 |
| 05/03/2026 | 0:00:00 | 123 | 55 | 23:00:01 | 53 | 23:53:05 | 53 | 92 | 23:56:02 | 89 | 23:03:00 | 91.5 | 0 | 1.3 | 193 | 0 | 68 | 68 | 69 | 69 |
| 05/03/2026 | 1:00:00 | 123 | 53 | 0:04:02 | 52 | 0:40:04 | 53 | 92 | 0:27:00 | 89 | 1:00:00 | 89.1 | 0 | 1.2 | 180 | 0 | 67 | 67 | 69 | 68 |
| 05/03/2026 | 2:00:00 | 123 | 54 | 1:07:00 | 53 | 1:59:02 | 53 | 92 | 1:52:05 | 89 | 1:00:05 | 91.8 | 0 | 0.8 | 76 | 0 | 67 | 66 | 68 | 68 |
| 05/03/2026 | 3:00:00 | 123 | 53 | 2:00:00 | 52 | 2:40:01 | 52 | 93 | 2:47:03 | 91 | 2:03:04 | 92.4 | 0 | 1.1 | 49 | 0 | 66 | 66 | 68 | 67 |
| 05/03/2026 | 4:00:00 | 123 | 52 | 3:07:01 | 50 | 3:52:05 | 51 | 93 | 3:59:05 | 92 | 3:00:00 | 93.4 | 0 | 1.0 | 115 | 0 | 66 | 65 | 67 | 67 |
| 05/03/2026 | 5:00:00 | 123 | 51 | 4:05:05 | 50 | 4:33:05 | 51 | 94 | 4:42:05 | 93 | 4:10:01 | 93.8 | 0 | 0.8 | 90 | 0 | 65 | 65 | 67 | 66 |
| 05/03/2026 | 6:00:00 | 123 | 51 | 5:08:04 | 50 | 5:50:03 | 51 | 94 | 5:07:05 | 93 | 5:23:01 | 93.7 | 0 | 1.0 | 61 | 1 | 65 | 64 | 66 | 66 |
| 05/03/2026 | 7:00:00 | 123 | 57 | 6:59:04 | 51 | 6:00:00 | 57 | 94 | 6:04:03 | 79 | 7:00:00 | 78.77 | 0 | 1.2 | 59 | 15 | 64 | 65 | 66 | 66 |
| 05/03/2026 | 8:00:00 | 123 | 63 | 7:58:05 | 57 | 7:00:00 | 63 | 80 | 7:02:04 | 69 | 7:59:03 | 68.96 | 0 | 1.4 | 117 | 35 | 65 | 65 | 66 | 66 |
| 05/03/2026 | 9:00:00 | 123 | 68 | 8:59:05 | 61 | 8:04:04 | 68 | 73 | 8:09:02 | 63 | 8:57:03 | 64.02 | 0 | 2.5 | 161 | 52 | 66 | 67 | 66 | 67 |
| 05/03/2026 | 10:00:00 | 123 | 72 | 9:45:02 | 68 | 9:19:02 | 70 | 67 | 9:19:04 | 58 | 9:47:00 | 59.03 | 0 | 3.3 | 188 | 67 | 68 | 69 | 67 | 68 |
| 05/03/2026 | 11:00:00 | 123 | 74 | 10:40:05 | 70 | 10:01:00 | 73 | 63 | 10:02:00 | 50 | 10:59:01 | 52.87 | 0 | 4.6 | 204 | 77 | 71 | 72 | 69 | 70 |
| 05/03/2026 | 12:00:00 | 123 | 75 | 11:37:02 | 73 | 11:00:00 | 75 | 57 | 11:02:01 | 42 | 11:48:00 | 48.83 | 0 | 4.6 | 237 | 80 | 74 | 75 | 71 | 72 |
| 05/03/2026 | 13:00:00 | 123 | 76 | 12:49:00 | 74 | 12:09:02 | 76 | 54 | 12:29:03 | 40 | 12:01:05 | 47.04 | 0 | 4.3 | 266 | 82 | 76 | 77 | 73 | 74 |
| 05/03/2026 | 14:00:00 | 123 | 76 | 13:14:00 | 75 | 13:24:01 | 75 | 54 | 13:48:02 | 40 | 13:05:05 | 47.77 | 0 | 4.9 | 293 | 77 | 78 | 78 | 75 | 75 |
| 05/03/2026 | 15:00:00 | 123 | 77 | 14:52:05 | 75 | 14:40:02 | 76 | 55 | 14:19:01 | 41 | 14:51:02 | 47.56 | 0 | 4.6 | 285 | 64 | 78 | 78 | 76 | 76 |
| 05/03/2026 | 16:00:00 | 123 | 77 | 15:14:05 | 75 | 15:47:00 | 76 | 52 | 15:07:00 | 42 | 15:30:03 | 49.94 | 0 | 4.7 | 250 | 50 | 78 | 77 | 76 | 76 |
| 05/03/2026 | 17:00:00 | 123 | 78 | 16:54:00 | 75 | 16:12:04 | 77 | 52 | 16:16:00 | 41 | 16:58:00 | 41.23 | 0 | 3.1 | 282 | 33 | 77 | 76 | 76 | 76 |
| 05/03/2026 | 18:00:00 | 123 | 77 | 17:00:01 | 75 | 17:59:05 | 75 | 55 | 17:59:04 | 41 | 17:00:00 | 54.46 | 0 | 2.6 | 228 | 16 | 76 | 75 | 75 | 75 |
| 05/03/2026 | 19:00:00 | 123 | 75 | 18:00:02 | 70 | 18:46:05 | 71 | 62 | 18:34:01 | 53 | 18:53:03 | 54.48 | 0 | 1.5 | 144 | 3 | 74 | 74 | 75 | 74 |
| 05/03/2026 | 20:00:00 | 123 | 71 | 19:07:00 | 64 | 19:59:05 | 64 | 82 | 20:00:00 | 52 | 19:04:01 | 81.9 | 0 | 1.3 | 80 | 0 | 73 | 72 | 74 | 73 |
| 05/03/2026 | 21:00:00 | 123 | 64 | 20:00:00 | 61 | 20:56:02 | 62 | 83 | 20:53:03 | 78 | 20:26:01 | 81 | 0 | 0.3 | 197 | 0 | 72 | 71 | 73 | 72 |
| 05/03/2026 | 22:00:00 | 123 | 64 | 21:16:00 | 60 | 21:58:05 | 60 | 84 | 21:57:01 | 68 | 21:15:01 | 83.8 | 0 | 0.7 | 153 | 0 | 71 | 71 | 72 | 72 |
| 05/03/2026 | 23:00:00 | 123 | 61 | 22:35:01 | 60 | 23:00:00 | 60 | 86 | 22:13:05 | 81 | 22:29:00 | 84.7 | 0 | 0.5 | 152 | 0 | 70 | 70 | 71 | 71 |
| 05/04/2026 | 0:00:00 | 124 | 60 | 23:14:03 | 58 | 23:40:01 | 59 | 88 | 23:45:03 | 84 | 23:05:01 | 86.5 | 0 | 0.3 | 98 | 0 | 69 | 69 | 71 | 70 |
| 05/04/2026 | 1:00:00 | 124 | 59 | 0:00:00 | 57 | 0:32:04 | 58 | 89 | 0:41:01 | 86 | 0:01:02 | 87.1 | 0 | 0.4 | 94 | 0 | 69 | 68 | 70 | 70 |
| 05/04/2026 | 2:00:00 | 124 | 58 | 1:33:03 | 56 | 1:59:04 | 56 | 88 | 2:00:00 | 84 | 1:33:04 | 87.6 | 0 | 0.9 | 144 | 0 | 68 | 68 | 69 | 69 |
| 05/04/2026 | 3:00:00 | 124 | 56 | 2:12:01 | 56 | 2:51:02 | 56 | 89 | 2:12:01 | 87 | 2:29:01 | 86.7 | 0 | 1.4 | 190 | 0 | 68 | 67 | 69 | 69 |
| 05/04/2026 | 4:00:00 | 124 | 56 | 3:15:03 | 56 | 3:06:01 | 56 | 87 | 3:01:03 | 86 | 3:19:00 | 86.5 | 0 | 2.4 | 200 | 0 | 67 | 67 | 68 | 68 |
| 05/04/2026 | 5:00:00 | 124 | 56 | 4:03:05 | 55 | 4:51:00 | 55 | 89 | 4:57:03 | 87 | 4:09:00 | 88.3 | 0 | 2.4 | 197 | 0 | 67 | 67 | 68 | 68 |
| 05/04/2026 | 6:00:00 | 124 | 57 | 5:59:04 | 55 | 5:11:02 | 57 | 89 | 5:19:04 | 88 | 5:57:04 | 88.2 | 0 | 2.6 | 191 | 2 | 66 | 66 | 68 | 67 |
| 05/04/2026 | 7:00:00 | 124 | 63 | 6:59:00 | 57 | 6:00:02 | 63 | 88 | 6:06:04 | 77 | 6:59:03 | 77.72 | 0 | 3.2 | 187 | 12 | 66 | 66 | 67 | 67 |
| 05/04/2026 | 8:00:00 | 124 | 67 | 7:56:01 | 62 | 7:02:01 | 66 | 78 | 7:00:03 | 66 | 7:56:04 | 66.58 | 0 | 5.5 | 222 | 34 | 67 | 67 | 67 | 68 |
| 05/04/2026 | 9:00:00 | 124 | 72 | 9:00:00 | 66 | 8:00:05 | 72 | 69 | 8:07:02 | 60 | 8:54:05 | 62.12 | 0 | 5.7 | 217 | 50 | 68 | 69 | 68 | 68 |
| 05/04/2026 | 10:00:00 | 124 | 74 | 9:57:03 | 72 | 9:21:01 | 74 | 63 | 9:02:00 | 52 | 9:58:05 | 54.27 | 0 | 7.3 | 220 | 63 | 70 | 72 | 69 | 70 |
| 05/04/2026 | 11:00:00 | 124 | 76 | 10:54:05 | 74 | 10:00:03 | 75 | 58 | 10:51:05 | 49 | 10:56:00 | 53.43 | 0 | 8.0 | 216 | 76 | 73 | 75 | 71 | 72 |
| 05/04/2026 | 12:00:00 | 124 | 79 | 11:52:00 | 75 | 11:22:02 | 78 | 56 | 11:04:03 | 42 | 11:48:04 | 47.46 | 0 | 8.2 | 203 | 78 | 76 | 76 | 73 | 74 |
| 05/04/2026 | 13:00:00 | 124 | 80 | 12:48:05 | 77 | 12:23:05 | 79 | 54 | 12:24:01 | 44 | 12:50:00 | 47.92 | 0 | 9.1 | 185 | 82 | 77 | 78 | 75 | 75 |
| 05/04/2026 | 14:00:00 | 124 | 79 | 13:57:04 | 78 | 13:14:02 | 79 | 52 | 13:23:03 | 44 | 13:47:02 | 48.32 | 0 | 9.0 | 191 | 72 | 78 | 78 | 76 | 76 |
| 05/04/2026 | 15:00:00 | 124 | 80 | 14:12:04 | 78 | 14:35:00 | 78 | 53 | 14:03:01 | 46 | 14:32:05 | 51.2 | 0 | 8.7 | 200 | 69 | 78 | 78 | 76 | 77 |
| 05/04/2026 | 16:00:00 | 124 | 79 | 15:26:05 | 77 | 15:14:05 | 77 | 53 | 15:23:04 | 46 | 15:48:04 | 50.12 | 0 | 9.0 | 201 | 50 | 78 | 77 | 77 | 76 |
| 05/04/2026 | 17:00:00 | 124 | 78 | 16:05:04 | 77 | 16:17:05 | 77 | 52 | 16:24:03 | 48 | 16:12:04 | 52.12 | 0 | 8.5 | 200 | 35 | 77 | 76 | 76 | 76 |
| 05/04/2026 | 18:00:00 | 124 | 77 | 17:01:04 | 75 | 17:59:04 | 75 | 55 | 17:54:01 | 50 | 17:04:05 | 54.11 | 0 | 7.0 | 193 | 17 | 76 | 75 | 75 | 75 |
| 05/04/2026 | 19:00:00 | 124 | 75 | 18:00:01 | 69 | 18:59:05 | 69 | 62 | 18:59:05 | 53 | 18:06:04 | 61.86 | 0 | 4.5 | 192 | 3 | 75 | 74 | 75 | 74 |
| 05/04/2026 | 20:00:00 | 124 | 69 | 19:00:00 | 66 | 19:58:00 | 66 | 66 | 19:57:02 | 62 | 19:00:01 | 65.17 | 0 | 3.0 | 185 | 0 | 73 | 73 | 74 | 74 |
| 05/04/2026 | 21:00:00 | 124 | 68 | 20:47:03 | 66 | 20:08:00 | 67 | 67 | 20:05:03 | 60 | 20:42:02 | 62 | 0 | 2.1 | 157 | 0 | 72 | 72 | 73 | 73 |
| 05/04/2026 | 22:00:00 | 124 | 68 | 21:10:02 | 65 | 21:32:00 | 65 | 72 | 21:44:02 | 60 | 21:10:05 | 68.82 | 0 | 2.2 | 109 | 0 | 71 | 71 | 72 | 72 |
| 05/04/2026 | 23:00:00 | 124 | 65 | 22:00:02 | 64 | 22:45:05 | 64 | 72 | 22:45:02 | 68 | 22:24:01 | 70.04 | 0 | 2.5 | 122 | 0 | 71 | 70 | 72 | 71 |
| 05/05/2026 | 0:00:00 | 125 | 64 | 23:13:03 | 63 | 0:00:00 | 63 | 73 | 23:59:04 | 70 | 23:00:01 | 72.62 | 0 | 4.5 | 135 | 0 | 70 | 70 | 71 | 71 |
| 05/05/2026 | 1:00:00 | 125 | 64 | 0:10:00 | 62 | 0:59:04 | 62 | 75 | 0:58:02 | 72 | 0:14:00 | 74.53 | 0 | 4.3 | 132 | 0 | 70 | 69 | 71 | 70 |
| 05/05/2026 | 2:00:00 | 125 | 62 | 1:06:03 | 61 | 1:59:02 | 61 | 77 | 1:58:03 | 74 | 1:04:02 | 77.28 | 0 | 3.0 | 136 | 0 | 69 | 69 | 70 | 70 |
| 05/05/2026 | 3:00:00 | 125 | 61 | 2:13:05 | 60 | 2:59:03 | 60 | 79 | 2:59:04 | 77 | 2:14:04 | 79.06 | 0 | 3.0 | 132 | 0 | 69 | 69 | 70 | 70 |
| 05/05/2026 | 4:00:00 | 125 | 60 | 3:00:01 | 60 | 3:59:03 | 60 | 80 | 3:58:04 | 79 | 3:00:00 | 80.3 | 0 | 3.9 | 137 | 0 | 68 | 68 | 69 | 69 |
| 05/05/2026 | 5:00:00 | 125 | 60 | 4:00:01 | 59 | 4:57:03 | 59 | 83 | 4:56:03 | 80 | 4:01:03 | 82.3 | 0 | 3.4 | 135 | 0 | 68 | 68 | 69 | 69 |
| 05/05/2026 | 6:00:00 | 125 | 61 | 5:59:05 | 59 | 5:00:01 | 61 | 83 | 5:35:01 | 82 | 6:00:00 | 81.9 | 0 | 3.1 | 141 | 3 | 68 | 68 | 69 | 69 |
| 05/05/2026 | 7:00:00 | 125 | 65 | 6:59:01 | 61 | 6:00:01 | 65 | 82 | 6:02:05 | 79 | 6:52:04 | 79.28 | 0 | 4.2 | 146 | 10 | 68 | 68 | 69 | 69 |
| 05/05/2026 | 8:00:00 | 125 | 66 | 7:59:04 | 64 | 7:01:02 | 66 | 80 | 7:11:04 | 77 | 7:29:03 | 78.74 | 0 | 6.3 | 169 | 9 | 68 | 69 | 69 | 69 |
| 05/05/2026 | 9:00:00 | 125 | 69 | 8:58:05 | 66 | 8:00:00 | 69 | 79 | 8:00:01 | 76 | 8:51:01 | 76.49 | 0 | 6.2 | 168 | 14 | 69 | 69 | 69 | 69 |
| 05/05/2026 | 10:00:00 | 125 | 72 | 9:54:04 | 69 | 9:01:02 | 72 | 77 | 9:04:03 | 72 | 9:49:02 | 73.82 | 0 | 6.3 | 159 | 27 | 70 | 70 | 69 | 70 |
| 05/05/2026 | 11:00:00 | 125 | 73 | 10:44:02 | 71 | 10:10:04 | 73 | 76 | 10:29:05 | 73 | 10:34:04 | 74.82 | 0 | 5.9 | 159 | 26 | 71 | 71 | 70 | 70 |
| 05/05/2026 | 12:00:00 | 125 | 77 | 11:55:00 | 73 | 11:00:00 | 76 | 76 | 11:02:00 | 70 | 11:55:05 | 72 | 0 | 6.3 | 162 | 33 | 72 | 72 | 71 | 71 |
| 05/05/2026 | 13:00:00 | 125 | 77 | 12:21:01 | 75 | 12:59:05 | 75 | 77 | 12:58:01 | 71 | 12:23:00 | 75.39 | 0 | 6.4 | 166 | 22 | 73 | 73 | 72 | 72 |
| 05/05/2026 | 14:00:00 | 125 | 75 | 13:19:03 | 75 | 13:02:05 | 75 | 78 | 13:58:00 | 74 | 13:15:03 | 77.18 | 0 | 5.4 | 139 | 18 | 73 | 73 | 72 | 72 |
| 05/05/2026 | 15:00:00 | 125 | 78 | 14:57:03 | 75 | 14:09:03 | 77 | 78 | 14:22:05 | 73 | 14:58:02 | 74.05 | 0 | 4.3 | 144 | 14 | 73 | 73 | 72 | 72 |
| 05/05/2026 | 16:00:00 | 125 | 79 | 15:57:03 | 77 | 15:19:02 | 79 | 75 | 15:12:02 | 70 | 15:57:05 | 71.75 | 0 | 5.6 | 145 | 22 | 73 | 73 | 72 | 73 |
| 05/05/2026 | 17:00:00 | 125 | 79 | 16:00:00 | 77 | 16:57:02 | 77 | 75 | 16:47:00 | 70 | 16:00:05 | 73.99 | 0 | 7.2 | 156 | 14 | 74 | 74 | 73 | 73 |
| 05/05/2026 | 18:00:00 | 125 | 78 | 17:12:04 | 77 | 17:59:05 | 77 | 75 | 17:53:05 | 73 | 17:10:00 | 75.24 | 0 | 5.5 | 152 | 8 | 73 | 73 | 73 | 73 |
| 05/05/2026 | 19:00:00 | 125 | 77 | 18:07:02 | 76 | 18:55:04 | 76 | 77 | 18:53:02 | 75 | 18:08:05 | 76.56 | 0 | 5.2 | 151 | 1 | 73 | 73 | 73 | 73 |
| 05/05/2026 | 20:00:00 | 125 | 76 | 19:00:01 | 75 | 19:59:01 | 75 | 79 | 19:58:03 | 76 | 19:02:02 | 78.46 | 0 | 5.1 | 152 | 0 | 73 | 72 | 73 | 72 |
| 05/05/2026 | 21:00:00 | 125 | 75 | 20:00:01 | 74 | 20:48:01 | 74 | 81 | 20:48:00 | 78 | 20:00:01 | 81 | 0 | 4.5 | 153 | 0 | 72 | 72 | 72 | 72 |
| 05/05/2026 | 22:00:00 | 125 | 75 | 21:18:02 | 74 | 21:01:02 | 75 | 82 | 21:39:01 | 80 | 21:17:00 | 81.6 | 0 | 5.6 | 161 | 0 | 72 | 72 | 72 | 72 |
| 05/05/2026 | 23:00:00 | 125 | 75 | 22:28:01 | 74 | 22:54:04 | 74 | 83 | 22:53:02 | 82 | 22:30:05 | 82.4 | 0 | 6.4 | 170 | 0 | 72 | 72 | 72 | 72 |
| 05/06/2026 | 0:00:00 | 126 | 74 | 23:00:00 | 73 | 23:57:04 | 73 | 85 | 0:00:00 | 82 | 23:01:05 | 84.5 | 0 | 4.5 | 168 | 0 | 71 | 71 | 72 | 72 |
| 05/06/2026 | 1:00:00 | 126 | 74 | 0:35:01 | 73 | 0:06:03 | 73 | 85 | 0:59:00 | 84 | 0:37:03 | 84.8 | 0 | 4.6 | 179 | 0 | 71 | 71 | 71 | 71 |
| 05/06/2026 | 2:00:00 | 126 | 73 | 1:58:05 | 72 | 1:21:02 | 73 | 86 | 1:28:05 | 85 | 1:58:04 | 84.7 | 0 | 5.8 | 188 | 0 | 71 | 71 | 71 | 71 |
| 05/06/2026 | 3:00:00 | 126 | 74 | 2:25:00 | 73 | 2:59:05 | 73 | 85 | 2:17:02 | 84 | 2:30:01 | 84.6 | 0 | 9.3 | 187 | 0 | 71 | 71 | 71 | 71 |
| 05/06/2026 | 4:00:00 | 126 | 73 | 3:56:03 | 73 | 3:26:04 | 73 | 86 | 3:27:02 | 84 | 3:56:04 | 84.5 | 0 | 7.6 | 186 | 0 | 71 | 71 | 71 | 71 |
| 05/06/2026 | 5:00:00 | 126 | 73 | 4:04:02 | 73 | 4:59:05 | 73 | 86 | 4:59:02 | 84 | 4:09:05 | 85.7 | 0 | 5.8 | 202 | 0 | 71 | 71 | 71 | 71 |
| 05/06/2026 | 6:00:00 | 126 | 73 | 5:00:03 | 72 | 5:35:01 | 73 | 87 | 5:42:05 | 86 | 5:00:02 | 86.4 | 0 | 4.0 | 185 | 1 | 71 | 71 | 71 | 71 |
| 05/06/2026 | 7:00:00 | 126 | 73 | 6:59:01 | 72 | 6:09:03 | 73 | 87 | 6:24:02 | 86 | 7:00:00 | 86 | 0 | 4.1 | 168 | 4 | 71 | 71 | 71 | 71 |
| 05/06/2026 | 8:00:00 | 126 | 74 | 7:59:02 | 73 | 7:00:01 | 74 | 86 | 7:01:04 | 85 | 7:54:00 | 84.9 | 0 | 5.8 | 173 | 8 | 71 | 72 | 71 | 71 |
| 05/06/2026 | 9:00:00 | 126 | 76 | 8:59:01 | 74 | 8:00:00 | 76 | 85 | 8:02:00 | 83 | 8:59:05 | 82.7 | 0 | 6.7 | 186 | 17 | 72 | 72 | 72 | 72 |
| 05/06/2026 | 10:00:00 | 126 | 78 | 9:28:01 | 76 | 9:00:01 | 77 | 83 | 9:02:03 | 79 | 9:31:05 | 81.6 | 0 | 8.0 | 205 | 26 | 73 | 73 | 72 | 72 |
| 05/06/2026 | 11:00:00 | 126 | 78 | 10:10:01 | 77 | 10:39:01 | 77 | 84 | 10:44:01 | 81 | 10:10:04 | 83.2 | 0 | 5.6 | 211 | 17 | 74 | 74 | 73 | 73 |
| 05/06/2026 | 12:00:00 | 126 | 78 | 11:19:00 | 67 | 11:59:05 | 67 | 85 | 11:49:00 | 76 | 11:26:03 | 84.2 | 0 | 6.2 | 306 | 17 | 74 | 74 | 73 | 73 |
| 05/06/2026 | 13:00:00 | 126 | 67 | 12:36:00 | 64 | 12:59:04 | 64 | 89 | 12:58:01 | 84 | 12:37:01 | 88.5 | 0 | 6.6 | 344 | 18 | 74 | 73 | 73 | 73 |
| 05/06/2026 | 14:00:00 | 126 | 65 | 13:54:05 | 63 | 13:09:02 | 65 | 91 | 13:18:03 | 85 | 13:56:01 | 86.3 | 0.06 | 6.1 | 348 | 13 | 73 | 73 | 73 | 73 |
| 05/06/2026 | 15:00:00 | 126 | 66 | 14:27:02 | 63 | 15:00:00 | 63 | 87 | 14:15:04 | 82 | 14:41:03 | 84.5 | 0 | 8.0 | 355 | 23 | 73 | 73 | 73 | 73 |
| 05/06/2026 | 16:00:00 | 126 | 63 | 15:00:00 | 61 | 15:59:05 | 61 | 87 | 15:58:03 | 84 | 15:04:03 | 86.1 | 0 | 9.5 | 359 | 12 | 73 | 72 | 73 | 72 |
| 05/06/2026 | 17:00:00 | 126 | 61 | 16:02:03 | 59 | 16:58:03 | 59 | 88 | 16:02:03 | 86 | 16:58:02 | 86.1 | 0 | 8.7 | 5 | 4 | 72 | 72 | 72 | 72 |
| 05/06/2026 | 18:00:00 | 126 | 59 | 17:00:00 | 58 | 17:40:03 | 59 | 91 | 17:45:01 | 86 | 17:02:01 | 90.3 | 0.01 | 4.2 | 16 | 2 | 71 | 71 | 72 | 71 |
| 05/06/2026 | 19:00:00 | 126 | 59 | 18:48:01 | 59 | 18:00:01 | 59 | 91 | 18:01:02 | 89 | 18:16:01 | 89.5 | 0 | 4.1 | 4 | 0 | 71 | 70 | 71 | 71 |
| 05/06/2026 | 20:00:00 | 126 | 60 | 19:23:01 | 59 | 19:53:04 | 59 | 90 | 19:09:01 | 88 | 19:23:03 | 88.3 | 0.05 | 5.2 | 5 | 0 | 70 | 70 | 71 | 71 |
| 05/06/2026 | 21:00:00 | 126 | 59 | 20:02:04 | 58 | 20:50:04 | 58 | 91 | 20:47:00 | 88 | 20:07:00 | 90.5 | 0.05 | 6.4 | 4 | 0 | 70 | 69 | 70 | 70 |
| 05/06/2026 | 22:00:00 | 126 | 58 | 21:04:02 | 57 | 21:39:02 | 57 | 93 | 21:53:01 | 90 | 21:07:03 | 92.5 | 0.19 | 6.0 | 358 | 0 | 69 | 68 | 70 | 69 |
| 05/06/2026 | 23:00:00 | 126 | 57 | 22:57:02 | 57 | 22:05:01 | 57 | 93 | 22:04:02 | 91 | 22:56:00 | 91.7 | 0.01 | 6.2 | 353 | 0 | 68 | 68 | 69 | 69 |
| 05/07/2026 | 0:00:00 | 127 | 57 | 23:04:02 | 57 | 23:13:01 | 57 | 92 | 23:04:02 | 91 | 23:51:04 | 91 | 0 | 6.0 | 0 | 0 | 68 | 68 | 69 | 69 |
| 05/07/2026 | 1:00:00 | 127 | 57 | 0:07:00 | 57 | 0:16:01 | 57 | 91 | 0:00:03 | 90 | 0:38:01 | 90.9 | 0 | 5.7 | 0 | 0 | 67 | 67 | 68 | 68 |
| 05/07/2026 | 2:00:00 | 127 | 57 | 1:09:00 | 57 | 1:31:03 | 57 | 92 | 1:30:01 | 90 | 1:07:02 | 91.3 | 0 | 5.0 | 344 | 0 | 67 | 67 | 68 | 68 |
| 05/07/2026 | 3:00:00 | 127 | 57 | 2:04:04 | 56 | 2:40:01 | 56 | 92 | 2:04:04 | 90 | 2:54:05 | 90.4 | 0 | 5.3 | 341 | 0 | 67 | 67 | 68 | 68 |
| 05/07/2026 | 4:00:00 | 127 | 57 | 3:01:04 | 56 | 3:54:01 | 56 | 91 | 3:24:00 | 90 | 3:54:04 | 90 | 0 | 5.8 | 349 | 0 | 67 | 67 | 68 | 68 |
| Average | 65.44 | 63.69 | 64.51 | 79.4 | 73.53 | 76.53 | 0 | 4.08 | 15.73 | 70.72 | 70.64 | 70.86 | 70.81 | |||||||
| Total | 0.71 |